Main page
METAR-TAF:

METAR-TAF

Airports :

Sanandaj Airport

Sanandaj, Iran

latitude: 35-20N, longitude: 047-00E, elevation: 1373 m

Current weather observation

The report was made 2 hours and 25 minutes ago, at 13:00 UTC
Wind 8 kt from the South
Temperature 35°C
Humidity 11%
Pressure 1005 hPa
Visibility 10 km or more
Few clouds at a height of 4000 ft

METAR: OICS 231300Z 19008KT 9999 FEW040 35/M00 Q1005

Time: 19:55 (15:25 UTC)


TAF: missing

Weather observations and forecasts of more than 4000 airports (METAR and TAF reports).

The available stations are represented by yellow and red dots on the map.

Hover mouse over dot to see the name of the station.

Then click to see weather observations and forecasts.

To change the map : click on the green buttons with a black cross to zoom in, on the green button with a dash to zoom out, or on the green arrows for adjacent maps.


METAR-TAF: